B. John Yeager — WDB8150 — position and weather

sailwx.info

Track history (hours):
 
Tides and Currents Weather Stations Pressure Air Temp Water Temp Dewpoint Dewpoint Depression Visibility Wind Speed Wind Dir Waves Ship Positions

B. John Yeager

Owner: INGRAM BARGE COMPANY, Nashville, TN. More information available from US FCC via Universal Licensing System and Coast Guard Vessel Documentation Center.

Last reported at 2014-Dec-11 13:32 UTC. Time now 2014-Dec-18 04:08 UTC.
Position N 30°04' W 090°51'.

Length 54 m; draft 3.7 m.

Type: Tow > 200 m length. MMSI: 366953860.

Date/timePositionNaut miles runAvg speedWind from/ knotsBaromVisibWave heightAir tempDewpointWater temp
2014-Dec-11 13:32N 30°04' W 090°51'0 0.0
2014-Dec-11 12:33N 30°04' W 090°51'0 0.0
2014-Dec-11 11:33N 30°04' W 090°51'1 0.6
2014-Dec-11 10:33N 30°03' W 090°51'0 0.0
2014-Dec-11 09:33N 30°03' W 090°51'0 0.0
2014-Dec-11 08:32N 30°03' W 090°51'0 0.0
2014-Dec-11 04:05N 30°03' W 090°51'0 0.3
2014-Dec-11 03:31N 30°04' W 090°51'6 3.1
2014-Dec-11 01:30N 30°01' W 090°44'37 1.0
2014-Dec-09 12:15N 29°57' W 090°01'5 5.1
2014-Dec-09 11:18N 29°55' W 089°56'6 3.1
2014-Dec-09 09:28N 29°50' W 089°59'5 5.4
2014-Dec-09 08:33N 29°46' W 090°01'  
Track history (hours):
 
Tides and Currents Weather Stations Pressure Air Temp Water Temp Dewpoint Dewpoint Depression Visibility Wind Speed Wind Dir Waves Ship Positions

B. John Yeager

Owner: INGRAM BARGE COMPANY, Nashville, TN. More information available from US FCC via Universal Licensing System and Coast Guard Vessel Documentation Center.

Last reported at 2014-Dec-11 13:32 UTC. Time now 2014-Dec-18 04:08 UTC.
Position N 30°04' W 090°51'.

Length 54 m; draft 3.7 m.

Type: Tow > 200 m length. MMSI: 366953860.

Date/timePositionNaut miles runAvg speedWind from/ knotsBaromVisibWave heightAir tempDewpointWater temp
2014-Dec-11 13:32N 30°04' W 090°51'0 0.0
2014-Dec-11 12:33N 30°04' W 090°51'0 0.0
2014-Dec-11 11:33N 30°04' W 090°51'1 0.6
2014-Dec-11 10:33N 30°03' W 090°51'0 0.0
2014-Dec-11 09:33N 30°03' W 090°51'0 0.0
2014-Dec-11 08:32N 30°03' W 090°51'0 0.0
2014-Dec-11 04:05N 30°03' W 090°51'0 0.3
2014-Dec-11 03:31N 30°04' W 090°51'6 3.1
2014-Dec-11 01:30N 30°01' W 090°44'37 1.0
2014-Dec-09 12:15N 29°57' W 090°01'5 5.1
2014-Dec-09 11:18N 29°55' W 089°56'6 3.1
2014-Dec-09 09:28N 29°50' W 089°59'5 5.4
2014-Dec-09 08:33N 29°46' W 090°01'  

Dump ship's entire track history